Tuesday, February 20, 2018, 4:25 AM EST
Back to Local

KFVE, Northern Aroostook Regional

Location: Saint Agatha, ME, United States Lat: 47.283
Local Time: 4:25 AM EST ( 9:25 GMT) Lon: -68.3
Time Zone: US/Eastern Elev: 987 ft

Show me the last for .
Show Decoded

2018-02-20 04:01 METAR KFVE 200901Z AUTO 00000KT 3SM -SN BR OVC032 M02/M02 A3021 RMK AO2 P0000
                 T10171022 =
2018-02-20 03:53 METAR KFVE 200853Z AUTO 00000KT 2SM -SN BR OVC028 M02/M02 A3020 RMK AO2 SLP235
                 P0001 60001 T10171022 50010 =
2018-02-20 03:21 METAR KFVE 200821Z AUTO 00000KT 2SM -SN BR OVC024 M01/M03 A3020 RMK AO2 P0000
                 T10111028 =
2018-02-20 03:10 METAR KFVE 200810Z AUTO 00000KT 1 3/4SM -SN BR OVC026 M01/M03 A3020 RMK AO2
                 P0000 T10111028 =
2018-02-20 02:59 METAR KFVE 200759Z AUTO 23004KT 2 1/2SM -SN OVC028 M01/M03 A3021 RMK AO2 P0000
                 T10061033 =
2018-02-20 02:53 METAR KFVE 200753Z AUTO 23003KT 4SM -SN OVC032 M01/M03 A3020 RMK AO2 SNB33
                 SLP236 P0000 T10061033 =
2018-02-20 01:53 METAR KFVE 200653Z AUTO 00000KT 10SM OVC085 M01/M04 A3018 RMK AO2 SLP228
                 T10061039 =
2018-02-20 00:53 METAR KFVE 200553Z AUTO 17004KT 10SM SCT030 SCT043 OVC100 M01/M04 A3017 RMK AO2
                 SLP225 T10061044 10000 21011 50002 =
2018-02-19 23:53 METAR KFVE 200453Z AUTO 18006KT 10SM OVC090 M01/M04 A3017 RMK AO2 SLP226
                 T10061044 400281106 =
2018-02-19 22:53 METAR KFVE 200353Z AUTO 19005KT 10SM BKN050 OVC090 M01/M04 A3016 RMK AO2 SLP227
                 T10061044 =
2018-02-19 21:53 METAR KFVE 200253Z AUTO 17007KT 10SM OVC048 00/M05 A3016 RMK AO2 SLP226
                 T00001050 53005 =
2018-02-19 20:53 METAR KFVE 200153Z AUTO 17003KT 10SM OVC055 00/M05 A3017 RMK AO2 SLP228
                 T00001050 =
2018-02-19 19:53 METAR KFVE 200053Z AUTO 17009KT 10SM BKN090 00/M06 A3014 RMK AO2 SLP221
                 T00001056 =
2018-02-19 18:53 METAR KFVE 192353Z AUTO 17006KT 10SM BKN110 00/M06 A3015 RMK AO2 SLP223
                 T00001061 10028 20000 58003 =
2018-02-19 17:53 METAR KFVE 192253Z AUTO 17008KT 10SM CLR 01/M06 A3015 RMK AO2 SLP224 T00061061 =
2018-02-19 16:53 METAR KFVE 192153Z AUTO 18008KT 10SM CLR 02/M06 A3016 RMK AO2 SLP226 T00171061 =
2018-02-19 15:53 METAR KFVE 192053Z AUTO 18011G19KT 10SM CLR 02/M07 A3016 RMK AO2 SLP225
                 T00221067 55019 =
2018-02-19 14:53 METAR KFVE 191953Z AUTO 18015G21KT 10SM CLR 02/M07 A3016 RMK AO2 SLP225
                 T00221072 =
2018-02-19 13:53 METAR KFVE 191853Z AUTO 18013G21KT 10SM CLR 02/M08 A3017 RMK AO2 SLP230
                 T00221078 =
2018-02-19 12:53 METAR KFVE 191753Z AUTO 18013G19KT 10SM CLR 02/M08 A3021 RMK AO2 SLP244
                 T00171083 10017 21106 56035 =
2018-02-19 11:53 METAR KFVE 191653Z AUTO 18017G23KT 10SM CLR 00/M08 A3024 RMK AO2 SLP252
                 T00001083 =
2018-02-19 10:53 METAR KFVE 191553Z AUTO 15013KT 10SM CLR M04/M09 A3027 RMK AO2 SLP266 T10391094
                 =
2018-02-19 09:53 METAR KFVE 191453Z AUTO 14010KT 10SM CLR M06/M10 A3032 RMK AO2 PRESFR SLP283
                 T10611100 58027 =
2018-02-19 08:53 METAR KFVE 191353Z AUTO 16007KT 10SM BKN065 BKN080 OVC100 M08/M11 A3035 RMK AO2
                 SLP294 T10831106 =
2018-02-19 07:53 METAR KFVE 191253Z AUTO 14008KT 10SM FEW037 OVC085 M09/M11 A3039 RMK AO2 SLP307
                 T10941111 =
2018-02-19 06:53 METAR KFVE 191153Z AUTO 00000KT 10SM BKN041 OVC095 M10/M12 A3041 RMK AO2 SLP313
                 T11001117 11072 21106 53014 =
2018-02-19 05:53 METAR KFVE 191053Z AUTO 18005KT 10SM BKN100 OVC120 M10/M12 A3038 RMK AO2 SLP303
                 T11001117 =
2018-02-19 04:53 METAR KFVE 190953Z AUTO 00000KT 10SM BKN100 M11/M12 A3038 RMK AO2 SLP303
                 T11061122 =

Support USWX by starting your Amazon purchase here.